createdAt,value
2018-03-24T00:01:53.023Z,19.48
2018-03-24T00:04:19.221Z,19.49
2018-03-24T00:06:45.727Z,19.50
2018-03-24T00:09:11.889Z,19.48
2018-03-24T00:11:38.114Z,19.49
2018-03-24T00:14:04.380Z,19.49
2018-03-24T00:16:30.549Z,19.47
2018-03-24T00:18:56.762Z,19.45
2018-03-24T00:21:22.919Z,19.47
2018-03-24T00:23:55.126Z,19.47
2018-03-24T00:26:21.303Z,19.47
2018-03-24T00:28:47.534Z,19.49
2018-03-24T00:31:14.050Z,19.48
2018-03-24T00:33:40.222Z,19.46
2018-03-24T00:36:06.455Z,19.46
2018-03-24T00:38:32.639Z,19.45
2018-03-24T00:40:59.179Z,19.44
2018-03-24T00:43:25.702Z,19.45
2018-03-24T00:45:52.239Z,19.44
2018-03-24T00:48:18.471Z,19.44
2018-03-24T00:50:45.004Z,19.44
2018-03-24T00:53:11.188Z,19.43
2018-03-24T00:55:37.412Z,19.44
2018-03-24T00:58:03.582Z,19.45
2018-03-24T01:00:29.830Z,19.45
2018-03-24T01:02:56.004Z,19.45
2018-03-24T01:05:22.203Z,19.45
2018-03-24T01:07:48.431Z,19.45
2018-03-24T01:10:14.607Z,19.43
2018-03-24T01:12:40.792Z,19.43
2018-03-24T01:15:07.032Z,19.44
2018-03-24T01:17:33.227Z,19.44
2018-03-24T01:19:59.417Z,19.43
2018-03-24T01:22:25.614Z,19.45
2018-03-24T01:24:51.809Z,19.43
2018-03-24T01:27:18.017Z,19.41
2018-03-24T01:29:44.203Z,19.43
2018-03-24T01:32:10.410Z,19.44
2018-03-24T01:34:36.577Z,19.43
2018-03-24T01:37:02.778Z,19.43
2018-03-24T01:39:28.956Z,19.44
2018-03-24T01:41:55.177Z,19.43
2018-03-24T01:44:21.478Z,19.43
2018-03-24T01:46:47.754Z,19.41
2018-03-24T01:49:13.987Z,19.42
2018-03-24T01:51:40.167Z,19.43
2018-03-24T01:54:06.339Z,19.43
2018-03-24T01:56:32.547Z,19.41
2018-03-24T01:58:58.773Z,19.39
2018-03-24T02:01:25.007Z,19.38
2018-03-24T02:03:51.438Z,19.39
2018-03-24T02:06:17.616Z,19.38
2018-03-24T02:08:43.832Z,19.38
2018-03-24T02:11:17.002Z,19.38
2018-03-24T02:13:43.209Z,19.37
2018-03-24T02:16:09.595Z,19.37
2018-03-24T02:18:35.812Z,19.37
2018-03-24T02:21:03.880Z,19.38
2018-03-24T02:23:30.094Z,19.38
2018-03-24T02:25:56.308Z,19.38
2018-03-24T02:28:22.511Z,19.38
2018-03-24T02:30:48.751Z,19.39
2018-03-24T02:33:14.968Z,19.39
2018-03-24T02:35:41.520Z,19.39
2018-03-24T02:38:07.728Z,19.39
2018-03-24T02:40:33.997Z,19.38
2018-03-24T02:43:00.409Z,19.38
2018-03-24T02:45:26.668Z,19.35
2018-03-24T02:47:52.869Z,19.36
2018-03-24T02:50:19.074Z,19.36
2018-03-24T02:52:45.260Z,19.36
2018-03-24T02:55:11.454Z,19.36
2018-03-24T02:57:37.666Z,19.36
2018-03-24T03:00:03.930Z,19.35
2018-03-24T03:02:30.137Z,19.35
2018-03-24T03:04:56.563Z,19.34
2018-03-24T03:07:22.799Z,19.35
2018-03-24T03:09:48.964Z,19.36
2018-03-24T03:12:15.134Z,19.36
2018-03-24T03:14:41.345Z,19.35
2018-03-24T03:17:07.548Z,19.34
2018-03-24T03:19:33.836Z,19.35
2018-03-24T03:22:07.064Z,19.35
2018-03-24T03:24:33.267Z,19.33
2018-03-24T03:26:59.461Z,19.34
2018-03-24T03:29:25.659Z,19.34
2018-03-24T03:31:58.788Z,19.36
2018-03-24T03:34:24.947Z,19.36
2018-03-24T03:36:51.130Z,19.36
2018-03-24T03:39:17.363Z,19.34
2018-03-24T03:41:43.914Z,19.32
2018-03-24T03:44:10.341Z,19.32
2018-03-24T03:46:36.686Z,19.32
2018-03-24T03:49:02.873Z,19.31
2018-03-24T03:51:29.039Z,19.32
2018-03-24T03:53:55.253Z,19.33
2018-03-24T03:56:21.699Z,19.32
2018-03-24T03:58:47.911Z,19.31
2018-03-24T04:01:14.079Z,19.32
2018-03-24T04:03:40.317Z,19.33
2018-03-24T04:06:06.470Z,19.33
2018-03-24T04:08:32.672Z,19.33
2018-03-24T04:10:58.903Z,19.32
2018-03-24T04:13:25.128Z,19.33
2018-03-24T04:15:51.303Z,19.30
2018-03-24T04:18:17.528Z,19.30
2018-03-24T04:20:43.715Z,19.30
2018-03-24T04:23:10.200Z,19.30
2018-03-24T04:25:36.439Z,19.29
2018-03-24T04:28:02.615Z,19.28
2018-03-24T04:30:28.776Z,19.28
2018-03-24T04:32:54.983Z,19.30
2018-03-24T04:35:21.151Z,19.31
2018-03-24T04:37:47.670Z,19.31
2018-03-24T04:40:13.840Z,19.31
2018-03-24T04:42:40.040Z,19.28
2018-03-24T04:45:06.230Z,19.30
2018-03-24T04:47:32.454Z,19.29
2018-03-24T04:49:58.914Z,19.31
2018-03-24T04:52:25.127Z,19.31
2018-03-24T04:54:51.370Z,19.31
2018-03-24T04:57:23.947Z,19.29
2018-03-24T04:59:50.484Z,19.29
2018-03-24T05:02:16.700Z,19.29
2018-03-24T05:04:42.897Z,19.30
2018-03-24T05:07:09.077Z,19.30
2018-03-24T05:09:35.273Z,19.27
2018-03-24T05:12:01.474Z,19.25
2018-03-24T05:14:27.684Z,19.25
2018-03-24T05:16:53.936Z,19.25
2018-03-24T05:19:20.116Z,19.23
2018-03-24T05:21:47.051Z,19.25
2018-03-24T05:24:13.228Z,19.26
2018-03-24T05:26:39.408Z,19.30
2018-03-24T05:29:05.688Z,19.33
2018-03-24T05:31:31.861Z,19.36
2018-03-24T05:33:58.392Z,19.37
2018-03-24T05:36:24.561Z,19.38
2018-03-24T05:38:50.764Z,19.39
2018-03-24T05:41:16.979Z,19.38
2018-03-24T05:43:44.330Z,19.39
2018-03-24T05:46:10.490Z,19.41
2018-03-24T05:48:37.005Z,19.42
2018-03-24T05:51:03.214Z,19.42
2018-03-24T05:53:29.652Z,19.42
2018-03-24T05:55:55.839Z,19.42
2018-03-24T05:58:22.014Z,19.41
2018-03-24T06:00:48.221Z,19.41
2018-03-24T06:03:14.404Z,19.42
2018-03-24T06:05:40.893Z,19.42
2018-03-24T06:08:07.062Z,19.42
2018-03-24T06:10:33.359Z,19.43
2018-03-24T06:12:59.507Z,19.42
2018-03-24T06:15:25.690Z,19.43
2018-03-24T06:17:51.893Z,19.42
2018-03-24T06:20:18.084Z,19.41
2018-03-24T06:22:44.321Z,19.40
2018-03-24T06:25:10.511Z,19.41
2018-03-24T06:27:36.724Z,19.42
2018-03-24T06:30:03.279Z,19.42
2018-03-24T06:32:29.528Z,19.42
2018-03-24T06:34:55.746Z,19.43
2018-03-24T06:37:22.004Z,19.43
2018-03-24T06:39:48.212Z,19.45
2018-03-24T06:42:14.450Z,19.45
2018-03-24T06:44:40.985Z,19.46
2018-03-24T06:47:07.253Z,19.49
2018-03-24T06:49:33.457Z,19.49
2018-03-24T06:51:59.660Z,19.52
2018-03-24T06:54:26.090Z,19.53
2018-03-24T06:56:52.318Z,19.54
2018-03-24T06:59:18.507Z,19.55
2018-03-24T07:01:44.963Z,19.57
2018-03-24T07:04:11.500Z,19.57
2018-03-24T07:06:37.744Z,19.59
2018-03-24T07:09:04.009Z,19.61
2018-03-24T07:11:30.199Z,19.60
2018-03-24T07:13:56.401Z,19.60
2018-03-24T07:16:22.618Z,19.62
2018-03-24T07:18:48.803Z,19.64
2018-03-24T07:21:15.376Z,19.65
2018-03-24T07:23:41.551Z,19.67
2018-03-24T07:26:07.736Z,19.67
2018-03-24T07:28:33.957Z,19.70
2018-03-24T07:31:00.162Z,19.70
2018-03-24T07:33:26.640Z,19.71
2018-03-24T07:35:52.829Z,19.72
2018-03-24T07:38:19.017Z,19.74
2018-03-24T07:40:45.225Z,19.75
2018-03-24T07:43:11.408Z,19.77
2018-03-24T07:45:37.626Z,19.78
2018-03-24T07:48:03.889Z,19.79
2018-03-24T07:50:30.135Z,19.79
2018-03-24T07:52:56.325Z,19.82
2018-03-24T07:55:22.535Z,19.84
2018-03-24T07:57:48.738Z,19.84
2018-03-24T08:00:14.988Z,19.87
2018-03-24T08:02:41.162Z,19.89
2018-03-24T08:05:07.341Z,19.91
2018-03-24T08:07:33.559Z,19.93
2018-03-24T08:09:59.795Z,19.95
2018-03-24T08:12:25.962Z,19.96
2018-03-24T08:14:52.147Z,19.97
2018-03-24T08:17:18.354Z,19.98
2018-03-24T08:19:44.525Z,19.98
2018-03-24T08:22:10.735Z,19.98
2018-03-24T08:24:37.001Z,19.99
2018-03-24T08:27:03.312Z,19.99
2018-03-24T08:29:29.537Z,20.00
2018-03-24T08:31:55.714Z,20.01
2018-03-24T08:34:21.910Z,20.00
2018-03-24T08:36:48.370Z,19.99
2018-03-24T08:39:14.578Z,19.99
2018-03-24T08:41:40.795Z,19.98
2018-03-24T08:44:07.024Z,20.02
2018-03-24T08:46:33.217Z,20.05
2018-03-24T08:48:59.725Z,20.05
2018-03-24T08:51:26.000Z,20.06
2018-03-24T08:53:52.477Z,20.07
2018-03-24T08:56:18.688Z,20.09
2018-03-24T08:58:44.866Z,20.09
2018-03-24T09:01:11.437Z,20.11
2018-03-24T09:03:37.633Z,20.13
2018-03-24T09:06:03.828Z,20.15
2018-03-24T09:08:30.045Z,20.16
2018-03-24T09:10:56.218Z,20.17
2018-03-24T09:13:22.715Z,20.21
2018-03-24T09:15:49.148Z,20.23
2018-03-24T09:18:15.369Z,20.27
2018-03-24T09:20:41.587Z,20.30
2018-03-24T09:23:08.038Z,20.34
2018-03-24T09:25:34.218Z,20.37
2018-03-24T09:28:00.457Z,20.39
2018-03-24T09:30:26.656Z,20.42
2018-03-24T09:32:52.855Z,20.44
2018-03-24T09:35:19.079Z,20.47
2018-03-24T09:37:45.258Z,20.51
2018-03-24T09:40:11.739Z,20.56
2018-03-24T09:42:37.909Z,20.59
2018-03-24T09:45:04.112Z,20.61
2018-03-24T09:47:30.659Z,20.62
2018-03-24T09:49:56.836Z,20.65
2018-03-24T09:52:23.053Z,20.67
2018-03-24T09:54:49.272Z,20.67
2018-03-24T09:57:15.748Z,20.67
2018-03-24T09:59:41.960Z,20.69
2018-03-24T10:02:08.158Z,20.71
2018-03-24T10:04:34.358Z,20.74
2018-03-24T10:07:00.563Z,20.75
2018-03-24T10:09:26.753Z,20.76
2018-03-24T10:11:52.999Z,20.78
2018-03-24T10:14:19.548Z,20.80
2018-03-24T10:16:45.751Z,20.80
2018-03-24T10:19:12.001Z,20.82
2018-03-24T10:24:44.097Z,20.84
2018-03-24T10:27:10.322Z,20.86
2018-03-24T10:29:36.535Z,20.86
2018-03-24T10:32:03.081Z,20.89
2018-03-24T10:34:29.255Z,20.93
2018-03-24T10:36:55.439Z,20.95
2018-03-24T10:39:21.673Z,20.98
2018-03-24T10:41:47.875Z,21.01
2018-03-24T10:44:14.428Z,21.04
2018-03-24T10:46:40.634Z,21.07
2018-03-24T10:49:07.598Z,21.08
2018-03-24T10:51:33.784Z,21.10
2018-03-24T10:53:59.971Z,21.12
2018-03-24T10:56:26.167Z,21.14
2018-03-24T10:58:52.392Z,21.16
2018-03-24T11:01:25.446Z,21.19
2018-03-24T11:03:51.631Z,21.20
2018-03-24T11:06:18.262Z,21.22
2018-03-24T11:08:44.446Z,21.23
2018-03-24T11:11:10.613Z,21.25
2018-03-24T11:13:36.805Z,21.27
2018-03-24T11:16:02.998Z,21.30
2018-03-24T11:18:29.207Z,21.32
2018-03-24T11:20:55.374Z,21.33
2018-03-24T11:23:21.957Z,21.34
2018-03-24T11:25:48.139Z,21.33
2018-03-24T11:28:14.673Z,21.33
2018-03-24T11:30:41.172Z,21.34
2018-03-24T11:33:07.386Z,21.33
2018-03-24T11:35:33.595Z,21.33
2018-03-24T11:37:59.806Z,21.31
2018-03-24T11:40:25.991Z,21.30
2018-03-24T11:42:52.214Z,21.28
2018-03-24T11:45:18.394Z,21.26
2018-03-24T11:47:44.574Z,21.26
2018-03-24T11:50:10.833Z,21.26
2018-03-24T11:52:37.054Z,21.27
2018-03-24T11:55:03.283Z,21.27
2018-03-24T11:57:29.698Z,21.28
2018-03-24T11:59:55.932Z,21.27
2018-03-24T12:02:22.434Z,21.27
2018-03-24T12:04:48.973Z,21.25
2018-03-24T12:07:15.195Z,21.23
2018-03-24T12:09:41.727Z,21.22
2018-03-24T12:12:08.267Z,21.20
2018-03-24T12:14:34.438Z,21.20
2018-03-24T12:17:00.677Z,21.20
2018-03-24T12:19:26.860Z,21.19
2018-03-24T12:21:53.043Z,21.20
2018-03-24T12:24:19.311Z,21.22
2018-03-24T12:26:45.522Z,21.23
2018-03-24T12:29:11.962Z,21.22
2018-03-24T12:31:38.139Z,21.21
2018-03-24T12:34:04.357Z,21.21
2018-03-24T12:36:31.263Z,21.20
2018-03-24T12:38:57.448Z,21.20
2018-03-24T12:41:29.798Z,21.21
2018-03-24T12:43:56.007Z,21.21
2018-03-24T12:46:22.208Z,21.21
2018-03-24T12:48:48.396Z,21.21
2018-03-24T12:51:14.674Z,21.20
2018-03-24T12:53:40.855Z,21.19
2018-03-24T12:56:07.021Z,21.17
2018-03-24T12:58:33.202Z,21.13
2018-03-24T13:00:59.432Z,21.10
2018-03-24T13:03:25.636Z,21.06
2018-03-24T13:05:51.827Z,21.03
2018-03-24T13:08:18.039Z,21.00
2018-03-24T13:10:44.199Z,20.99
2018-03-24T13:13:10.726Z,20.98
2018-03-24T13:15:37.261Z,20.96
2018-03-24T13:18:03.799Z,20.96
2018-03-24T13:20:30.336Z,20.97
2018-03-24T13:22:56.548Z,20.98
2018-03-24T13:25:22.769Z,20.98
2018-03-24T13:27:48.960Z,20.98
2018-03-24T13:30:15.203Z,20.99
2018-03-24T13:32:41.392Z,20.99
2018-03-24T13:35:07.576Z,21.01
2018-03-24T13:37:34.029Z,21.01
2018-03-24T13:40:00.220Z,21.02
2018-03-24T13:42:26.412Z,21.03
2018-03-24T13:44:52.609Z,21.08
2018-03-24T13:47:18.831Z,21.13
2018-03-24T13:49:45.043Z,21.14
2018-03-24T13:52:11.289Z,21.13
2018-03-24T13:54:37.479Z,21.14
2018-03-24T13:57:03.963Z,21.21
2018-03-24T13:59:30.169Z,21.21
2018-03-24T14:01:56.367Z,21.19
2018-03-24T14:04:22.566Z,21.17
2018-03-24T14:06:48.786Z,21.17
2018-03-24T14:09:14.981Z,21.14
2018-03-24T14:11:41.537Z,21.10
2018-03-24T14:14:07.723Z,21.05
2018-03-24T14:16:33.928Z,21.02
2018-03-24T14:19:00.146Z,20.99
2018-03-24T14:21:26.553Z,20.96
2018-03-24T14:23:52.804Z,20.94
2018-03-24T14:26:18.992Z,20.91
2018-03-24T14:28:45.559Z,20.89
2018-03-24T14:31:11.730Z,20.86
2018-03-24T14:33:37.913Z,20.84
2018-03-24T14:36:04.123Z,20.82
2018-03-24T14:38:30.326Z,20.80
2018-03-24T14:40:56.764Z,20.79
2018-03-24T14:43:22.981Z,20.77
2018-03-24T14:45:49.198Z,20.75
2018-03-24T14:48:15.424Z,20.72
2018-03-24T14:50:41.602Z,20.71
2018-03-24T14:53:07.870Z,20.67
2018-03-24T14:55:34.046Z,20.66
2018-03-24T14:58:00.263Z,20.64
2018-03-24T15:00:26.815Z,20.62
2018-03-24T15:02:53.353Z,20.60
2018-03-24T15:05:19.578Z,20.57
2018-03-24T15:07:45.746Z,20.56
2018-03-24T15:10:11.941Z,20.54
2018-03-24T15:12:38.148Z,20.52
2018-03-24T15:15:04.351Z,20.50
2018-03-24T15:17:30.536Z,20.49
2018-03-24T15:19:56.749Z,20.47
2018-03-24T15:22:22.963Z,20.47
2018-03-24T15:24:49.151Z,20.45
2018-03-24T15:27:15.354Z,20.45
2018-03-24T15:29:53.816Z,20.44
2018-03-24T15:32:32.072Z,20.43
2018-03-24T15:35:10.872Z,20.42
2018-03-24T15:37:37.070Z,20.41
2018-03-24T15:40:03.314Z,20.39
2018-03-24T15:42:29.492Z,20.40
2018-03-24T15:44:55.666Z,20.39
2018-03-24T15:47:22.219Z,20.39
2018-03-24T15:49:48.655Z,20.38
2018-03-24T15:52:14.820Z,20.37
2018-03-24T15:54:41.420Z,20.37
2018-03-24T15:57:07.951Z,20.34
2018-03-24T15:59:34.188Z,20.35
2018-03-24T16:02:00.412Z,20.35
2018-03-24T16:04:26.938Z,20.34
2018-03-24T16:06:53.137Z,20.34
2018-03-24T16:09:19.319Z,20.32
2018-03-24T16:11:45.536Z,20.32
2018-03-24T16:14:11.756Z,20.31
2018-03-24T16:16:37.944Z,20.31
2018-03-24T16:19:04.157Z,20.30
2018-03-24T16:21:30.339Z,20.29
2018-03-24T16:23:56.564Z,20.29
2018-03-24T16:26:23.168Z,20.29
2018-03-24T16:28:49.342Z,20.28
2018-03-24T16:31:15.538Z,20.29
2018-03-24T16:33:42.093Z,20.27
2018-03-24T16:36:08.319Z,20.25
2018-03-24T16:38:34.504Z,20.24
2018-03-24T16:41:00.685Z,20.24
2018-03-24T16:43:26.939Z,20.24
2018-03-24T16:45:53.434Z,20.23
2018-03-24T16:48:19.630Z,20.22
2018-03-24T16:50:45.824Z,20.21
2018-03-24T16:53:12.039Z,20.18
2018-03-24T16:55:38.224Z,20.16
2018-03-24T16:58:04.415Z,20.17
2018-03-24T17:00:30.688Z,20.16
2018-03-24T17:02:57.020Z,20.16
2018-03-24T17:05:23.212Z,20.15
2018-03-24T17:07:49.691Z,20.14
2018-03-24T17:10:15.933Z,20.12
2018-03-24T17:12:42.107Z,20.10
2018-03-24T17:15:08.295Z,20.09
2018-03-24T17:17:34.910Z,20.08
2018-03-24T17:20:01.119Z,20.10
2018-03-24T17:22:27.308Z,20.10
2018-03-24T17:24:53.565Z,20.09
2018-03-24T17:27:19.781Z,20.09
2018-03-24T17:29:45.972Z,20.08
2018-03-24T17:32:12.170Z,20.07
2018-03-24T17:34:38.346Z,20.07
2018-03-24T17:37:04.567Z,20.07
2018-03-24T17:39:30.749Z,20.07
2018-03-24T17:41:57.369Z,20.08
2018-03-24T17:44:23.569Z,20.07
2018-03-24T17:46:49.769Z,20.07
2018-03-24T17:49:15.983Z,20.07
2018-03-24T17:51:42.169Z,20.06
2018-03-24T17:54:08.816Z,20.06
2018-03-24T17:56:35.018Z,20.04
2018-03-24T17:59:01.187Z,20.04
2018-03-24T18:01:27.489Z,20.04
2018-03-24T18:03:53.672Z,20.04
2018-03-24T18:06:19.873Z,20.05
2018-03-24T18:08:46.485Z,20.04
2018-03-24T18:11:12.666Z,20.04
2018-03-24T18:13:38.841Z,20.02
2018-03-24T18:16:05.043Z,20.03
2018-03-24T18:18:31.539Z,20.01
2018-03-24T18:20:57.722Z,20.00
2018-03-24T18:23:23.962Z,20.01
2018-03-24T18:25:50.141Z,20.01
2018-03-24T18:28:16.326Z,20.01
2018-03-24T18:30:42.782Z,20.01
2018-03-24T18:33:09.209Z,20.01
2018-03-24T18:35:35.468Z,20.00
2018-03-24T18:38:01.653Z,19.98
2018-03-24T18:40:28.213Z,19.98
2018-03-24T18:42:54.390Z,19.98
2018-03-24T18:45:20.602Z,19.98
2018-03-24T18:47:46.851Z,19.96
2018-03-24T18:50:13.323Z,19.97
2018-03-24T18:52:39.540Z,19.96
2018-03-24T18:55:05.718Z,19.96
2018-03-24T18:57:31.916Z,19.97
2018-03-24T18:59:58.108Z,19.98
2018-03-24T19:02:24.417Z,19.98
2018-03-24T19:04:50.608Z,19.97
2018-03-24T19:07:16.826Z,19.97
2018-03-24T19:09:43.020Z,19.97
2018-03-24T19:12:09.209Z,19.97
2018-03-24T19:14:35.505Z,19.96
2018-03-24T19:17:01.687Z,19.94
2018-03-24T19:19:27.879Z,19.94
2018-03-24T19:21:54.085Z,19.94
2018-03-24T19:24:20.276Z,19.93
2018-03-24T19:26:46.496Z,19.94
2018-03-24T19:29:12.723Z,19.94
2018-03-24T19:31:38.900Z,19.94
2018-03-24T19:34:05.344Z,19.95
2018-03-24T19:36:31.868Z,19.96
2018-03-24T19:38:58.060Z,19.97
2018-03-24T19:41:24.288Z,19.96
2018-03-24T19:43:50.481Z,19.96
2018-03-24T19:46:16.759Z,19.96
2018-03-24T19:48:43.316Z,19.97
2018-03-24T19:51:09.490Z,19.96
2018-03-24T19:53:35.740Z,19.96
2018-03-24T19:56:01.909Z,19.96
2018-03-24T19:58:28.427Z,19.96
2018-03-24T20:00:54.954Z,19.97
2018-03-24T20:03:21.216Z,19.96
2018-03-24T20:05:47.368Z,19.94
2018-03-24T20:08:14.261Z,19.95
2018-03-24T20:10:40.440Z,19.94
2018-03-24T20:13:06.634Z,19.94
2018-03-24T20:15:32.931Z,19.93
2018-03-24T20:17:59.177Z,19.92
2018-03-24T20:20:25.368Z,19.93
2018-03-24T20:22:51.565Z,19.91
2018-03-24T20:25:17.804Z,19.92
2018-03-24T20:27:43.997Z,19.91
2018-03-24T20:30:10.181Z,19.93
2018-03-24T20:32:36.422Z,19.91
2018-03-24T20:35:02.616Z,19.91
2018-03-24T20:37:28.796Z,19.89
2018-03-24T20:39:55.004Z,19.91
2018-03-24T20:42:21.251Z,19.90
2018-03-24T20:44:47.473Z,19.89
2018-03-24T20:47:13.675Z,19.91
2018-03-24T20:49:39.908Z,19.91
2018-03-24T20:52:06.088Z,19.91
2018-03-24T20:54:32.324Z,19.92
2018-03-24T20:56:58.534Z,19.93
2018-03-24T20:59:24.721Z,19.92
2018-03-24T21:01:50.932Z,19.94
2018-03-24T21:04:17.139Z,19.93
2018-03-24T21:06:43.342Z,19.93
2018-03-24T21:09:09.526Z,19.93
2018-03-24T21:11:35.760Z,19.90
2018-03-24T21:14:01.926Z,19.92
2018-03-24T21:16:28.102Z,19.91
2018-03-24T21:18:54.332Z,19.91
2018-03-24T21:21:20.502Z,19.91
2018-03-24T21:23:46.686Z,19.91
2018-03-24T21:26:12.901Z,19.93
2018-03-24T21:28:39.086Z,19.93
2018-03-24T21:31:05.290Z,19.94
2018-03-24T21:33:31.530Z,19.92
2018-03-24T21:35:57.703Z,19.90
2018-03-24T21:38:23.902Z,19.90
2018-03-24T21:40:50.115Z,19.87
2018-03-24T21:43:16.314Z,19.88
2018-03-24T21:45:42.542Z,19.87
2018-03-24T21:48:09.004Z,19.87
2018-03-24T21:50:35.199Z,19.86
2018-03-24T21:53:01.438Z,19.86
2018-03-24T21:55:27.715Z,19.87
2018-03-24T21:57:53.911Z,19.86
2018-03-24T22:00:20.098Z,19.85
2018-03-24T22:02:46.302Z,19.85
2018-03-24T22:05:12.484Z,19.85
2018-03-24T22:07:38.678Z,19.85
2018-03-24T22:10:04.879Z,19.83
2018-03-24T22:12:31.073Z,19.83
2018-03-24T22:14:57.291Z,19.83
2018-03-24T22:17:23.469Z,19.83
2018-03-24T22:19:49.704Z,19.85
2018-03-24T22:22:15.882Z,19.85
2018-03-24T22:24:42.057Z,19.86
2018-03-24T22:27:08.552Z,19.86
2018-03-24T22:29:34.735Z,19.86
2018-03-24T22:32:00.986Z,19.85
2018-03-24T22:34:27.176Z,19.85
2018-03-24T22:36:53.364Z,19.86
2018-03-24T22:39:19.587Z,19.86
2018-03-24T22:41:46.125Z,19.84
2018-03-24T22:44:12.313Z,19.84
2018-03-24T22:46:38.886Z,19.84
2018-03-24T22:49:05.068Z,19.85
2018-03-24T22:51:31.306Z,19.86
2018-03-24T22:53:57.509Z,19.84
2018-03-24T22:56:23.752Z,19.83
2018-03-24T22:58:50.396Z,19.82
2018-03-24T23:01:20.563Z,19.82
2018-03-24T23:03:46.743Z,19.83
2018-03-24T23:06:20.017Z,19.84
2018-03-24T23:08:46.206Z,19.83
2018-03-24T23:11:19.414Z,19.83
2018-03-24T23:13:45.611Z,19.83
2018-03-24T23:16:11.851Z,19.82
2018-03-24T23:18:38.026Z,19.81
2018-03-24T23:21:04.518Z,19.81
2018-03-24T23:23:31.048Z,19.80
2018-03-24T23:25:57.275Z,19.82
2018-03-24T23:28:23.484Z,19.81
2018-03-24T23:30:49.655Z,19.82
2018-03-24T23:33:15.889Z,19.82
2018-03-24T23:35:42.080Z,19.81
2018-03-24T23:38:08.254Z,19.82
2018-03-24T23:40:34.479Z,19.83
2018-03-24T23:45:32.736Z,19.85
2018-03-24T23:47:58.957Z,19.85
2018-03-24T23:50:25.206Z,19.85
2018-03-24T23:52:51.456Z,19.85
2018-03-24T23:55:17.706Z,19.84
2018-03-24T23:57:44.300Z,19.84
